createdAt,value
2023-05-02T00:00:01.440Z,540.16
2023-05-02T00:00:11.022Z,540.18
2023-05-02T00:00:21.024Z,540.12
2023-05-02T00:00:31.019Z,540.04
2023-05-02T00:00:41.021Z,540.11
2023-05-02T00:00:51.036Z,540.03
2023-05-02T00:01:01.042Z,540.03
2023-05-02T00:01:11.029Z,539.92
2023-05-02T00:01:21.028Z,539.83
2023-05-02T00:01:31.022Z,539.87
2023-05-02T00:01:41.051Z,539.83
2023-05-02T00:01:51.061Z,539.74
2023-05-02T00:02:11.115Z,539.76
2023-05-02T00:02:21.097Z,539.78
2023-05-02T00:02:31.180Z,539.82
2023-05-02T00:02:41.272Z,539.80
2023-05-02T00:02:51.163Z,539.77
2023-05-02T00:03:01.208Z,539.76
2023-05-02T00:03:21.112Z,539.81
2023-05-02T00:03:31.116Z,539.78
2023-05-02T00:03:41.102Z,539.77
2023-05-02T00:03:51.178Z,539.81
2023-05-02T00:04:01.134Z,539.79
2023-05-02T00:04:11.102Z,539.85
2023-05-02T00:04:21.084Z,539.85
2023-05-02T00:04:31.084Z,539.81
2023-05-02T00:04:41.157Z,539.77
2023-05-02T00:05:01.048Z,539.86
2023-05-02T00:05:11.045Z,539.83
2023-05-02T00:05:21.059Z,539.88
2023-05-02T00:05:31.056Z,539.89
2023-05-02T00:05:41.057Z,539.80
2023-05-02T00:05:51.048Z,539.77
2023-05-02T00:06:01.109Z,539.77
2023-05-02T00:06:11.118Z,539.84
2023-05-02T00:06:21.145Z,539.82
2023-05-02T00:06:31.129Z,539.78
2023-05-02T00:06:41.091Z,539.87
2023-05-02T00:06:51.096Z,539.78
2023-05-02T00:07:01.057Z,539.79
2023-05-02T00:07:21.054Z,539.92
2023-05-02T00:07:31.049Z,539.80
2023-05-02T00:07:41.087Z,539.81
2023-05-02T00:07:51.054Z,539.87
2023-05-02T00:08:01.052Z,539.81
2023-05-02T00:08:11.068Z,539.87
2023-05-02T00:08:21.056Z,539.81
2023-05-02T00:08:31.059Z,539.90
2023-05-02T00:08:51.058Z,539.91
2023-05-02T00:09:01.080Z,539.89
2023-05-02T00:09:11.061Z,539.87
2023-05-02T00:09:21.064Z,539.94
2023-05-02T00:09:31.058Z,539.92
2023-05-02T00:09:41.059Z,539.91
2023-05-02T00:09:51.063Z,539.94
2023-05-02T00:10:01.312Z,539.96
2023-05-02T00:10:11.061Z,540.01
2023-05-02T00:10:21.065Z,539.97
2023-05-02T00:10:31.068Z,539.90
2023-05-02T00:10:51.065Z,539.93
2023-05-02T00:11:01.109Z,539.86
2023-05-02T00:11:11.071Z,539.89
2023-05-02T00:11:21.070Z,539.82
2023-05-02T00:11:31.075Z,539.90
2023-05-02T00:11:41.074Z,539.86
2023-05-02T00:11:51.087Z,539.91
2023-05-02T00:12:01.073Z,539.92
2023-05-02T00:12:11.094Z,539.84
2023-05-02T00:12:21.069Z,539.83
2023-05-02T00:12:31.080Z,539.78
2023-05-02T00:12:41.079Z,539.77
2023-05-02T00:12:51.085Z,539.84
2023-05-02T00:13:11.113Z,539.75
2023-05-02T00:13:21.087Z,539.84
2023-05-02T00:13:31.082Z,539.81
2023-05-02T00:13:41.078Z,539.84
2023-05-02T00:13:51.098Z,539.83
2023-05-02T00:14:01.081Z,539.82
2023-05-02T00:14:11.085Z,539.84
2023-05-02T00:14:21.097Z,539.81
2023-05-02T00:14:31.082Z,539.75
2023-05-02T00:14:41.080Z,539.71
2023-05-02T00:15:01.093Z,539.70
2023-05-02T00:15:11.110Z,539.68
2023-05-02T00:15:21.093Z,539.76
2023-05-02T00:15:31.090Z,539.74
2023-05-02T00:15:41.089Z,539.74
2023-05-02T00:15:51.085Z,539.66
2023-05-02T00:16:01.105Z,539.66
2023-05-02T00:16:11.137Z,539.69
2023-05-02T00:16:21.158Z,539.60
2023-05-02T00:16:31.233Z,539.65
2023-05-02T00:16:41.126Z,539.57
2023-05-02T00:16:51.128Z,539.64
2023-05-02T00:17:01.121Z,539.58
2023-05-02T00:17:11.147Z,539.59
2023-05-02T00:17:31.187Z,539.50
2023-05-02T00:17:41.168Z,539.52
2023-05-02T00:17:51.218Z,539.54
2023-05-02T00:18:01.129Z,539.60
2023-05-02T00:18:11.208Z,539.58
2023-05-02T00:18:21.100Z,539.52
2023-05-02T00:18:31.106Z,539.52
2023-05-02T00:18:51.138Z,539.60
2023-05-02T00:19:01.130Z,539.56
2023-05-02T00:19:11.110Z,539.61
2023-05-02T00:19:21.104Z,539.58
2023-05-02T00:19:31.106Z,539.58
2023-05-02T00:19:41.111Z,539.60
2023-05-02T00:20:01.431Z,539.56
2023-05-02T00:20:11.124Z,539.62
2023-05-02T00:20:21.120Z,539.66
2023-05-02T00:20:31.114Z,539.64
2023-05-02T00:20:41.111Z,539.55
2023-05-02T00:20:51.120Z,539.61
2023-05-02T00:21:11.113Z,539.61
2023-05-02T00:21:21.123Z,539.70
2023-05-02T00:21:31.132Z,539.71
2023-05-02T00:21:41.122Z,539.68
2023-05-02T00:21:51.121Z,539.63
2023-05-02T00:22:01.121Z,539.71
2023-05-02T00:22:11.130Z,539.72
2023-05-02T00:22:21.122Z,539.65
2023-05-02T00:22:41.129Z,539.65
2023-05-02T00:22:51.153Z,539.65
2023-05-02T00:23:01.118Z,539.64
2023-05-02T00:23:11.116Z,539.69
2023-05-02T00:23:21.140Z,539.61
2023-05-02T00:23:31.120Z,539.59
2023-05-02T00:23:41.121Z,539.61
2023-05-02T00:24:01.146Z,539.60
2023-05-02T00:24:11.197Z,539.65
2023-05-02T00:24:21.138Z,539.61
2023-05-02T00:24:31.125Z,539.50
2023-05-02T00:24:41.127Z,539.60
2023-05-02T00:24:51.126Z,539.52
2023-05-02T00:25:01.128Z,539.59
2023-05-02T00:25:11.150Z,539.52
2023-05-02T00:25:21.128Z,539.47
2023-05-02T00:25:31.127Z,539.54
2023-05-02T00:25:41.128Z,539.48
2023-05-02T00:25:51.158Z,539.53
2023-05-02T00:26:01.169Z,539.52
2023-05-02T00:26:21.161Z,539.41
2023-05-02T00:26:31.131Z,539.40
2023-05-02T00:26:41.148Z,539.45
2023-05-02T00:26:51.152Z,539.47
2023-05-02T00:27:01.135Z,539.36
2023-05-02T00:27:11.168Z,539.33
2023-05-02T00:27:21.145Z,539.41
2023-05-02T00:27:31.132Z,539.32
2023-05-02T00:27:41.136Z,539.34
2023-05-02T00:27:51.449Z,539.36
2023-05-02T00:28:01.147Z,539.31
2023-05-02T00:28:11.147Z,539.33
2023-05-02T00:28:21.176Z,539.27
2023-05-02T00:28:31.159Z,539.34
2023-05-02T00:28:41.147Z,539.29
2023-05-02T00:28:51.147Z,539.35
2023-05-02T00:29:01.176Z,539.30
2023-05-02T00:29:11.155Z,539.28
2023-05-02T00:29:21.174Z,539.33
2023-05-02T00:29:41.145Z,539.33
2023-05-02T00:29:51.145Z,539.35
2023-05-02T00:30:01.503Z,539.43
2023-05-02T00:30:11.165Z,539.36
2023-05-02T00:30:21.196Z,539.38
2023-05-02T00:30:31.152Z,539.46
2023-05-02T00:30:41.229Z,539.47
2023-05-02T00:30:51.174Z,539.52
2023-05-02T00:31:01.276Z,539.48
2023-05-02T00:31:11.206Z,539.46
2023-05-02T00:31:21.218Z,539.53
2023-05-02T00:31:31.191Z,539.49
2023-05-02T00:31:41.255Z,539.53
2023-05-02T00:31:51.152Z,539.47
2023-05-02T00:32:01.162Z,539.56
2023-05-02T00:32:11.156Z,539.55
2023-05-02T00:32:21.159Z,539.51
2023-05-02T00:32:41.251Z,539.44
2023-05-02T00:32:51.194Z,539.43
2023-05-02T00:33:01.209Z,539.39
2023-05-02T00:33:11.274Z,539.43
2023-05-02T00:33:21.168Z,539.37
2023-05-02T00:33:31.162Z,539.41
2023-05-02T00:33:51.189Z,539.24
2023-05-02T00:34:01.170Z,539.28
2023-05-02T00:34:11.168Z,539.21
2023-05-02T00:34:21.170Z,539.20
2023-05-02T00:34:31.174Z,539.18
2023-05-02T00:34:41.172Z,539.11
2023-05-02T00:34:51.219Z,539.08
2023-05-02T00:35:01.188Z,539.04
2023-05-02T00:35:11.193Z,539.04
2023-05-02T00:35:21.176Z,539.03
2023-05-02T00:35:41.183Z,538.98
2023-05-02T00:35:51.179Z,538.92
2023-05-02T00:36:01.177Z,538.97
2023-05-02T00:36:11.197Z,538.86
2023-05-02T00:36:21.196Z,538.87
2023-05-02T00:36:31.190Z,538.79
2023-05-02T00:36:41.192Z,538.84
2023-05-02T00:36:51.176Z,538.85
2023-05-02T00:37:01.179Z,538.88
2023-05-02T00:37:11.169Z,538.88
2023-05-02T00:37:21.199Z,538.81
2023-05-02T00:37:31.178Z,538.87
2023-05-02T00:37:41.233Z,538.91
2023-05-02T00:37:51.191Z,538.87
2023-05-02T00:38:01.179Z,538.92
2023-05-02T00:38:11.183Z,538.92
2023-05-02T00:38:21.183Z,538.82
2023-05-02T00:38:31.185Z,538.87
2023-05-02T00:38:41.213Z,538.85
2023-05-02T00:39:01.195Z,538.81
2023-05-02T00:39:11.190Z,538.71
2023-05-02T00:39:21.189Z,538.74
2023-05-02T00:39:31.190Z,538.72
2023-05-02T00:39:41.196Z,538.68
2023-05-02T00:39:51.205Z,538.63
2023-05-02T00:40:01.657Z,538.56
2023-05-02T00:40:11.221Z,538.62
2023-05-02T00:40:21.190Z,538.64
2023-05-02T00:40:31.197Z,538.64
2023-05-02T00:40:41.194Z,538.64
2023-05-02T00:40:51.259Z,538.65
2023-05-02T00:41:01.197Z,538.57
2023-05-02T00:41:11.206Z,538.60
2023-05-02T00:41:21.202Z,538.54
2023-05-02T00:41:31.312Z,538.60
2023-05-02T00:41:41.204Z,538.57
2023-05-02T00:41:51.213Z,538.55
2023-05-02T00:42:01.208Z,538.62
2023-05-02T00:42:11.220Z,538.63
2023-05-02T00:42:31.202Z,538.59
2023-05-02T00:42:41.215Z,538.54
2023-05-02T00:42:51.229Z,538.50
2023-05-02T00:43:01.208Z,538.65
2023-05-02T00:43:11.207Z,538.57
2023-05-02T00:43:21.231Z,538.63
2023-05-02T00:43:31.206Z,538.48
2023-05-02T00:43:41.220Z,538.59
2023-05-02T00:44:01.306Z,538.52
2023-05-02T00:44:11.229Z,538.47
2023-05-02T00:44:21.218Z,538.35
2023-05-02T00:44:31.210Z,538.41
2023-05-02T00:44:41.212Z,538.56
2023-05-02T00:44:51.210Z,538.46
2023-05-02T00:45:11.237Z,538.59
2023-05-02T00:45:21.219Z,538.49
2023-05-02T00:45:31.220Z,538.51
2023-05-02T00:45:41.231Z,538.57
2023-05-02T00:45:51.215Z,538.50
2023-05-02T00:46:01.285Z,538.57
2023-05-02T00:46:21.243Z,538.54
2023-05-02T00:46:31.247Z,538.48
2023-05-02T00:46:41.268Z,538.51
2023-05-02T00:46:51.256Z,538.44
2023-05-02T00:47:01.228Z,538.39
2023-05-02T00:47:11.236Z,538.45
2023-05-02T00:47:21.228Z,538.36
2023-05-02T00:47:31.277Z,538.49
2023-05-02T00:47:41.256Z,538.48
2023-05-02T00:47:51.288Z,538.40
2023-05-02T00:48:01.301Z,538.44
2023-05-02T00:48:11.368Z,538.37
2023-05-02T00:48:21.229Z,538.43
2023-05-02T00:48:31.242Z,538.35
2023-05-02T00:48:41.295Z,538.33
2023-05-02T00:49:01.227Z,538.36
2023-05-02T00:49:11.236Z,538.44
2023-05-02T00:49:21.234Z,538.44
2023-05-02T00:49:31.250Z,538.41
2023-05-02T00:49:41.235Z,538.35
2023-05-02T00:49:51.247Z,538.37
2023-05-02T00:50:01.600Z,538.39
2023-05-02T00:50:11.233Z,538.43
2023-05-02T00:50:21.251Z,538.44
2023-05-02T00:50:31.242Z,538.51
2023-05-02T00:50:41.246Z,538.51
2023-05-02T00:50:51.235Z,538.52
2023-05-02T00:51:01.236Z,538.49
2023-05-02T00:51:11.236Z,538.50
2023-05-02T00:51:31.243Z,538.55
2023-05-02T00:51:41.240Z,538.62
2023-05-02T00:51:51.245Z,538.61
2023-05-02T00:52:01.241Z,538.63
2023-05-02T00:52:11.259Z,538.58
2023-05-02T00:52:21.246Z,538.63
2023-05-02T00:52:31.250Z,538.61
2023-05-02T00:52:41.241Z,538.69
2023-05-02T00:52:51.275Z,538.71
2023-05-02T00:53:01.253Z,538.64
2023-05-02T00:53:21.242Z,538.72
2023-05-02T00:53:31.247Z,538.71
2023-05-02T00:53:41.264Z,538.71
2023-05-02T00:53:51.252Z,538.69
2023-05-02T00:54:01.247Z,538.66
2023-05-02T00:54:11.284Z,538.77
2023-05-02T00:54:21.250Z,538.72
2023-05-02T00:54:31.257Z,538.76
2023-05-02T00:54:41.260Z,538.76
2023-05-02T00:54:51.262Z,538.74
2023-05-02T00:55:01.257Z,538.89
2023-05-02T00:55:21.259Z,538.87
2023-05-02T00:55:31.253Z,538.89
2023-05-02T00:55:41.254Z,538.96
2023-05-02T00:55:51.263Z,538.98
2023-05-02T00:56:01.260Z,538.97
2023-05-02T00:56:11.290Z,539.04
2023-05-02T00:56:21.262Z,539.01
2023-05-02T00:56:31.271Z,539.06
2023-05-02T00:56:41.264Z,539.11
2023-05-02T00:56:51.267Z,539.11
2023-05-02T00:57:01.269Z,539.14
2023-05-02T00:57:11.329Z,539.18
2023-05-02T00:57:21.252Z,539.14
2023-05-02T00:57:31.267Z,539.10
2023-05-02T00:57:41.261Z,539.14
2023-05-02T00:57:51.263Z,539.16
2023-05-02T00:58:01.277Z,539.23
2023-05-02T00:58:11.312Z,539.23
2023-05-02T00:58:21.256Z,539.23
2023-05-02T00:58:31.270Z,539.35
2023-05-02T00:58:41.273Z,539.32
2023-05-02T00:58:51.267Z,539.37
2023-05-02T00:59:01.279Z,539.40
2023-05-02T00:59:21.288Z,539.43
2023-05-02T00:59:31.302Z,539.36
2023-05-02T00:59:41.273Z,539.38
2023-05-02T00:59:51.273Z,539.44
2023-05-02T01:00:01.541Z,539.48
2023-05-02T01:00:11.277Z,539.47
2023-05-02T01:00:31.285Z,539.57
2023-05-02T01:00:41.286Z,539.52
2023-05-02T01:00:51.281Z,539.56
2023-05-02T01:01:01.280Z,539.51
2023-05-02T01:01:11.318Z,539.55
2023-05-02T01:01:21.345Z,539.50
2023-05-02T01:01:41.397Z,539.49
2023-05-02T01:01:51.336Z,539.57
2023-05-02T01:02:01.361Z,539.56
2023-05-02T01:02:11.490Z,539.57
2023-05-02T01:02:21.445Z,539.59
2023-05-02T01:02:31.437Z,539.49
2023-05-02T01:02:41.417Z,539.57
2023-05-02T01:02:51.381Z,539.50
2023-05-02T01:03:01.425Z,539.50
2023-05-02T01:03:11.393Z,539.52
2023-05-02T01:03:21.388Z,539.46
2023-05-02T01:03:31.421Z,539.47
2023-05-02T01:03:41.445Z,539.32
2023-05-02T01:03:51.452Z,539.41
2023-05-02T01:04:11.539Z,539.28
2023-05-02T01:04:21.370Z,539.29
2023-05-02T01:04:31.299Z,539.32
2023-05-02T01:04:41.346Z,539.24
2023-05-02T01:04:51.307Z,539.23
2023-05-02T01:05:01.310Z,539.27
2023-05-02T01:05:11.324Z,539.31
2023-05-02T01:05:21.300Z,539.19
2023-05-02T01:05:31.301Z,539.19
2023-05-02T01:05:51.308Z,539.16
2023-05-02T01:06:01.326Z,539.04
2023-05-02T01:06:11.329Z,538.98
2023-05-02T01:06:21.349Z,538.90
2023-05-02T01:06:31.326Z,538.92
2023-05-02T01:06:41.417Z,538.88
2023-05-02T01:06:51.399Z,538.99
2023-05-02T01:07:01.309Z,538.99
2023-05-02T01:07:11.324Z,538.91
2023-05-02T01:07:21.307Z,538.99
2023-05-02T01:07:31.322Z,539.05
2023-05-02T01:07:51.315Z,538.87
2023-05-02T01:08:01.326Z,538.90
2023-05-02T01:08:11.332Z,538.81
2023-05-02T01:08:21.310Z,538.78
2023-05-02T01:08:31.315Z,538.82
2023-05-02T01:08:41.316Z,538.73
2023-05-02T01:08:51.332Z,538.69
2023-05-02T01:09:11.324Z,538.77
2023-05-02T01:09:21.334Z,538.81
2023-05-02T01:09:31.328Z,538.84
2023-05-02T01:09:41.321Z,538.88
2023-05-02T01:09:51.316Z,538.74
2023-05-02T01:10:01.548Z,538.89
2023-05-02T01:10:11.334Z,538.81
2023-05-02T01:10:31.321Z,538.78
2023-05-02T01:10:41.328Z,538.87
2023-05-02T01:10:51.338Z,538.83
2023-05-02T01:11:01.322Z,538.84
2023-05-02T01:11:11.324Z,538.86
2023-05-02T01:11:21.347Z,538.79
2023-05-02T01:11:31.330Z,538.86
2023-05-02T01:11:51.330Z,538.93
2023-05-02T01:12:01.326Z,538.96
2023-05-02T01:12:11.337Z,538.99
2023-05-02T01:12:21.343Z,538.97
2023-05-02T01:12:31.341Z,538.93
2023-05-02T01:12:41.331Z,539.00
2023-05-02T01:12:51.338Z,539.02
2023-05-02T01:13:01.345Z,538.90
2023-05-02T01:13:21.360Z,538.90
2023-05-02T01:13:31.337Z,538.97
2023-05-02T01:13:41.347Z,539.08
2023-05-02T01:13:51.340Z,538.97
2023-05-02T01:14:01.345Z,539.03
2023-05-02T01:14:11.349Z,539.09
2023-05-02T01:14:31.417Z,539.01
2023-05-02T01:14:41.338Z,539.11
2023-05-02T01:14:51.345Z,539.06
2023-05-02T01:15:01.345Z,539.01
2023-05-02T01:15:11.360Z,539.09
2023-05-02T01:15:21.348Z,539.07
2023-05-02T01:15:41.396Z,538.99
2023-05-02T01:15:51.393Z,538.98
2023-05-02T01:16:01.394Z,539.07
2023-05-02T01:16:11.466Z,539.06
2023-05-02T01:16:21.453Z,539.04
2023-05-02T01:16:31.413Z,539.07
2023-05-02T01:16:41.461Z,539.01
2023-05-02T01:17:01.352Z,539.07
2023-05-02T01:17:11.381Z,539.06
2023-05-02T01:17:21.360Z,539.13
2023-05-02T01:17:31.383Z,539.11
2023-05-02T01:17:41.394Z,539.03
2023-05-02T01:17:51.454Z,539.05
2023-05-02T01:18:01.484Z,539.04
2023-05-02T01:18:11.404Z,539.07
2023-05-02T01:18:21.374Z,539.03
2023-05-02T01:18:31.401Z,539.06
2023-05-02T01:18:51.362Z,539.17
2023-05-02T01:19:01.390Z,539.11
2023-05-02T01:19:11.381Z,539.07
2023-05-02T01:19:21.368Z,539.06
2023-05-02T01:19:31.366Z,539.04
2023-05-02T01:19:41.371Z,539.10
2023-05-02T01:19:51.392Z,539.08
2023-05-02T01:20:11.376Z,539.11
2023-05-02T01:20:21.377Z,539.00
2023-05-02T01:20:31.418Z,539.09
2023-05-02T01:20:41.374Z,539.07
2023-05-02T01:20:51.376Z,539.09
2023-05-02T01:21:01.384Z,539.15
2023-05-02T01:21:11.369Z,539.13
2023-05-02T01:21:21.394Z,539.10
2023-05-02T01:21:41.383Z,539.00
2023-05-02T01:21:51.374Z,539.05
2023-05-02T01:22:01.375Z,539.07
2023-05-02T01:22:11.426Z,539.10
2023-05-02T01:22:21.390Z,539.14
2023-05-02T01:22:31.389Z,539.09
2023-05-02T01:22:41.368Z,539.09
2023-05-02T01:22:51.384Z,539.10
2023-05-02T01:23:01.379Z,539.05
2023-05-02T01:23:11.436Z,539.01
2023-05-02T01:23:21.387Z,539.04
2023-05-02T01:23:31.392Z,538.99
2023-05-02T01:23:41.391Z,538.93
2023-05-02T01:23:51.386Z,538.85
2023-05-02T01:24:11.393Z,538.85
2023-05-02T01:24:21.387Z,538.91
2023-05-02T01:24:31.394Z,538.83
2023-05-02T01:24:41.410Z,538.74
2023-05-02T01:24:51.386Z,538.70
2023-05-02T01:25:01.408Z,538.71
2023-05-02T01:25:11.397Z,538.76
2023-05-02T01:25:21.394Z,538.82
2023-05-02T01:25:31.397Z,538.78
2023-05-02T01:25:41.398Z,538.69
2023-05-02T01:25:51.394Z,538.63
2023-05-02T01:26:01.393Z,538.60
2023-05-02T01:26:11.398Z,538.62
2023-05-02T01:26:21.401Z,538.62
2023-05-02T01:26:31.394Z,538.60
2023-05-02T01:26:41.403Z,538.65
2023-05-02T01:26:51.396Z,538.62
2023-05-02T01:27:01.398Z,538.52
2023-05-02T01:27:11.459Z,538.53
2023-05-02T01:27:21.401Z,538.46
2023-05-02T01:27:31.399Z,538.50
2023-05-02T01:27:51.406Z,538.60
2023-05-02T01:28:01.410Z,538.58
2023-05-02T01:28:11.412Z,538.55
2023-05-02T01:28:21.402Z,538.49
2023-05-02T01:28:31.420Z,538.53
2023-05-02T01:28:41.406Z,538.49
2023-05-02T01:28:51.410Z,538.54
2023-05-02T01:29:01.408Z,538.46
2023-05-02T01:29:21.426Z,538.44
2023-05-02T01:29:31.411Z,538.36
2023-05-02T01:29:42.041Z,538.42
2023-05-02T01:29:51.424Z,538.34
2023-05-02T01:30:02.592Z,538.36
2023-05-02T01:30:11.414Z,538.32
2023-05-02T01:30:21.438Z,538.33
2023-05-02T01:30:31.454Z,538.29
2023-05-02T01:30:51.422Z,538.32
2023-05-02T01:31:01.399Z,538.28
2023-05-02T01:31:11.439Z,538.24
2023-05-02T01:31:21.461Z,538.26
2023-05-02T01:31:31.446Z,538.23
2023-05-02T01:31:41.456Z,538.16
2023-05-02T01:31:51.473Z,538.17
2023-05-02T01:32:01.463Z,538.13
2023-05-02T01:32:11.430Z,538.05
2023-05-02T01:32:21.419Z,538.07
2023-05-02T01:32:31.472Z,538.05
2023-05-02T01:32:41.557Z,538.02
2023-05-02T01:32:51.451Z,538.02
2023-05-02T01:33:01.503Z,537.95
2023-05-02T01:33:11.460Z,537.93
2023-05-02T01:33:21.427Z,537.98
2023-05-02T01:33:41.425Z,538.02
2023-05-02T01:33:51.426Z,537.99
2023-05-02T01:34:01.428Z,537.97
2023-05-02T01:34:11.478Z,538.00
2023-05-02T01:34:21.467Z,538.01
2023-05-02T01:34:31.458Z,537.97
2023-05-02T01:34:41.432Z,538.00
2023-05-02T01:34:51.427Z,538.05
2023-05-02T01:35:01.432Z,537.99
2023-05-02T01:35:11.439Z,538.10
2023-05-02T01:35:21.430Z,538.08
2023-05-02T01:35:41.446Z,538.14
2023-05-02T01:35:51.433Z,538.09
2023-05-02T01:36:01.435Z,538.18
2023-05-02T01:36:11.451Z,538.11
2023-05-02T01:36:21.438Z,538.19
2023-05-02T01:36:31.441Z,538.17
2023-05-02T01:36:41.472Z,538.15
2023-05-02T01:36:51.438Z,538.23
2023-05-02T01:37:01.459Z,538.23
2023-05-02T01:37:11.438Z,538.23
2023-05-02T01:37:21.443Z,538.15
2023-05-02T01:37:31.460Z,538.16
2023-05-02T01:37:51.441Z,538.14
2023-05-02T01:38:01.452Z,538.23
2023-05-02T01:38:11.449Z,538.24
2023-05-02T01:38:21.446Z,538.19
2023-05-02T01:38:31.446Z,538.10
2023-05-02T01:38:41.457Z,538.14
2023-05-02T01:38:51.458Z,538.07
2023-05-02T01:39:01.472Z,538.17
2023-05-02T01:39:21.463Z,538.13
2023-05-02T01:39:31.444Z,538.06
2023-05-02T01:39:41.457Z,538.12
2023-05-02T01:39:51.446Z,538.03
2023-05-02T01:40:01.931Z,538.07
2023-05-02T01:40:11.449Z,538.05
2023-05-02T01:40:21.472Z,537.99
2023-05-02T01:40:31.456Z,538.05
2023-05-02T01:40:41.454Z,538.16
2023-05-02T01:40:51.469Z,538.12
2023-05-02T01:41:01.479Z,538.12
2023-05-02T01:41:11.452Z,538.09
2023-05-02T01:41:21.479Z,538.14
2023-05-02T01:41:31.466Z,538.12
2023-05-02T01:41:41.460Z,538.12
2023-05-02T01:41:51.456Z,538.18
2023-05-02T01:42:01.478Z,538.17
2023-05-02T01:42:11.458Z,538.09
2023-05-02T01:42:21.466Z,538.18
2023-05-02T01:42:31.465Z,538.20
2023-05-02T01:42:41.464Z,538.19
2023-05-02T01:42:51.462Z,538.14
2023-05-02T01:43:01.495Z,538.12
2023-05-02T01:43:11.481Z,538.09
2023-05-02T01:43:21.481Z,538.10
2023-05-02T01:43:31.512Z,538.09
2023-05-02T01:43:41.494Z,538.10
2023-05-02T01:43:51.472Z,538.03
2023-05-02T01:44:11.474Z,538.00
2023-05-02T01:44:21.481Z,537.99
2023-05-02T01:44:31.473Z,537.95
2023-05-02T01:44:41.473Z,537.88
2023-05-02T01:44:51.484Z,537.83
2023-05-02T01:45:01.492Z,537.72
2023-05-02T01:45:11.486Z,537.72
2023-05-02T01:45:21.502Z,537.73
2023-05-02T01:45:31.489Z,537.64
2023-05-02T01:45:41.478Z,537.66
2023-05-02T01:46:01.506Z,537.59
2023-05-02T01:46:11.599Z,537.57
2023-05-02T01:46:21.502Z,537.58
2023-05-02T01:46:31.563Z,537.50
2023-05-02T01:46:41.509Z,537.47
2023-05-02T01:46:51.529Z,537.36
2023-05-02T01:47:11.566Z,537.46
2023-05-02T01:47:21.556Z,537.39
2023-05-02T01:47:31.503Z,537.37
2023-05-02T01:47:41.534Z,537.23
2023-05-02T01:47:51.619Z,537.26
2023-05-02T01:48:01.540Z,537.23
2023-05-02T01:48:11.523Z,537.19
2023-05-02T01:48:21.488Z,537.26
2023-05-02T01:48:31.492Z,537.13
2023-05-02T01:48:41.489Z,537.16
2023-05-02T01:48:51.517Z,537.13
2023-05-02T01:49:01.496Z,537.21
2023-05-02T01:49:21.501Z,537.15
2023-05-02T01:49:31.503Z,537.10
2023-05-02T01:49:41.569Z,536.98
2023-05-02T01:49:51.500Z,537.01
2023-05-02T01:50:01.693Z,537.00
2023-05-02T01:50:11.496Z,537.11
2023-05-02T01:50:21.494Z,537.04
2023-05-02T01:50:41.497Z,537.01
2023-05-02T01:50:51.517Z,536.88
2023-05-02T01:51:01.503Z,536.93
2023-05-02T01:51:11.501Z,536.89
2023-05-02T01:51:21.516Z,536.84
2023-05-02T01:51:31.502Z,536.89
2023-05-02T01:51:41.500Z,536.80
2023-05-02T01:51:51.526Z,536.77
2023-05-02T01:52:01.507Z,536.81
2023-05-02T01:52:11.500Z,536.72
2023-05-02T01:52:21.511Z,536.81
2023-05-02T01:52:31.505Z,536.71
2023-05-02T01:52:41.511Z,536.73
2023-05-02T01:52:51.522Z,536.76
2023-05-02T01:53:01.513Z,536.67
2023-05-02T01:53:11.514Z,536.76
2023-05-02T01:53:21.516Z,536.73
2023-05-02T01:53:31.511Z,536.78
2023-05-02T01:53:41.543Z,536.64
2023-05-02T01:53:51.515Z,536.75
2023-05-02T01:54:01.514Z,536.72
2023-05-02T01:54:11.521Z,536.75
2023-05-02T01:54:21.520Z,536.76
2023-05-02T01:54:31.531Z,536.69
2023-05-02T01:54:41.518Z,536.78
2023-05-02T01:54:51.522Z,536.80
2023-05-02T01:55:01.532Z,536.78
2023-05-02T01:55:11.527Z,536.79
2023-05-02T01:55:21.519Z,536.76
2023-05-02T01:55:31.522Z,536.83
2023-05-02T01:55:41.533Z,536.71
2023-05-02T01:55:51.549Z,536.72
2023-05-02T01:56:01.533Z,536.72
2023-05-02T01:56:11.525Z,536.79
2023-05-02T01:56:21.531Z,536.75
2023-05-02T01:56:31.537Z,536.68
2023-05-02T01:56:41.525Z,536.79
2023-05-02T01:57:01.570Z,536.82
2023-05-02T01:57:11.545Z,536.71
2023-05-02T01:57:21.532Z,536.66
2023-05-02T01:57:31.533Z,536.64
2023-05-02T01:57:41.533Z,536.61
2023-05-02T01:57:51.534Z,536.78
2023-05-02T01:58:11.557Z,536.76
2023-05-02T01:58:21.558Z,536.77
2023-05-02T01:58:31.553Z,536.76
2023-05-02T01:58:41.536Z,536.69
2023-05-02T01:58:51.578Z,536.79
2023-05-02T01:59:01.547Z,536.77
2023-05-02T01:59:11.570Z,536.67
2023-05-02T01:59:21.556Z,536.65
2023-05-02T01:59:31.542Z,536.68
2023-05-02T01:59:41.558Z,536.58
2023-05-02T01:59:51.567Z,536.61
2023-05-02T02:00:02.147Z,536.65
2023-05-02T02:00:21.548Z,536.68
2023-05-02T02:00:31.555Z,536.66
2023-05-02T02:00:41.563Z,536.55
2023-05-02T02:00:51.706Z,536.69
2023-05-02T02:01:01.628Z,536.60
2023-05-02T02:01:11.571Z,536.53
2023-05-02T02:01:21.570Z,536.46
2023-05-02T02:01:31.591Z,536.54
2023-05-02T02:01:41.595Z,536.44
2023-05-02T02:01:51.582Z,536.58
2023-05-02T02:02:01.558Z,536.53
2023-05-02T02:02:11.555Z,536.42
2023-05-02T02:02:21.587Z,536.48
2023-05-02T02:02:31.565Z,536.45
2023-05-02T02:02:41.559Z,536.43
2023-05-02T02:02:51.570Z,536.40
2023-05-02T02:03:11.667Z,536.41
2023-05-02T02:03:21.635Z,536.35
2023-05-02T02:03:31.722Z,536.42
2023-05-02T02:03:41.584Z,536.35
2023-05-02T02:03:51.713Z,536.43
2023-05-02T02:04:01.609Z,536.36
2023-05-02T02:04:21.597Z,536.31
2023-05-02T02:04:31.680Z,536.37
2023-05-02T02:04:41.665Z,536.29
2023-05-02T02:04:51.633Z,536.29
2023-05-02T02:05:01.576Z,536.30
2023-05-02T02:05:11.566Z,536.26
2023-05-02T02:05:21.589Z,536.22
2023-05-02T02:05:31.568Z,536.16
2023-05-02T02:05:41.590Z,536.17
2023-05-02T02:05:51.584Z,536.25
2023-05-02T02:06:01.619Z,536.20
2023-05-02T02:06:11.612Z,536.11
2023-05-02T02:06:21.632Z,536.09
2023-05-02T02:06:31.605Z,536.16
2023-05-02T02:06:41.587Z,536.17
2023-05-02T02:06:51.643Z,536.22
2023-05-02T02:07:01.573Z,536.12
2023-05-02T02:07:11.578Z,536.09
2023-05-02T02:07:21.584Z,536.17
2023-05-02T02:07:31.578Z,536.10
2023-05-02T02:07:41.584Z,536.16
2023-05-02T02:07:51.577Z,536.13
2023-05-02T02:08:01.586Z,536.15
2023-05-02T02:08:11.615Z,536.16
2023-05-02T02:08:21.582Z,536.18
2023-05-02T02:08:31.582Z,536.13
2023-05-02T02:08:41.585Z,536.09
2023-05-02T02:08:51.592Z,536.16
2023-05-02T02:09:01.612Z,536.12
2023-05-02T02:09:21.586Z,536.10
2023-05-02T02:09:31.584Z,536.13
2023-05-02T02:09:41.589Z,536.13
2023-05-02T02:09:51.586Z,536.17
2023-05-02T02:10:01.891Z,536.13
2023-05-02T02:10:11.604Z,536.15
2023-05-02T02:10:21.617Z,536.17
2023-05-02T02:10:31.592Z,536.24
2023-05-02T02:10:41.607Z,536.17
2023-05-02T02:10:51.593Z,536.22
2023-05-02T02:11:01.613Z,536.16
2023-05-02T02:11:11.605Z,536.18
2023-05-02T02:11:21.600Z,536.11
2023-05-02T02:11:31.596Z,536.15
2023-05-02T02:11:41.615Z,536.20
2023-05-02T02:11:51.600Z,536.25
2023-05-02T02:12:01.599Z,536.26
2023-05-02T02:12:11.602Z,536.27
2023-05-02T02:12:21.598Z,536.25
2023-05-02T02:12:31.599Z,536.29
2023-05-02T02:12:41.600Z,536.32
2023-05-02T02:12:51.624Z,536.25
2023-05-02T02:13:11.620Z,536.29
2023-05-02T02:13:21.603Z,536.25
2023-05-02T02:13:31.602Z,536.32
2023-05-02T02:13:41.614Z,536.26
2023-05-02T02:13:51.605Z,536.22
2023-05-02T02:14:01.606Z,536.31
2023-05-02T02:14:21.605Z,536.33
2023-05-02T02:14:31.631Z,536.41
2023-05-02T02:14:41.620Z,536.34
2023-05-02T02:14:51.644Z,536.30
2023-05-02T02:15:01.620Z,536.36
2023-05-02T02:15:11.615Z,536.36
2023-05-02T02:15:21.637Z,536.30
2023-05-02T02:15:31.611Z,536.30